Time;durP1;ratioP1;P1;durP2;ratioP2;P2;SDS_P1;SDS_P2;PMS_P1;PMS_P2;Temp;Humidity;BMP_temperature;BMP_pressure;BME280_temperature;BME280_humidity;BME280_pressure;Samples;Min_cycle;Max_cycle;Signal;HPM_P1;HPM_P2
2022/02/16 00:01:41;;;;;;;23.27;10.38;;;;;;;7.67;100.00;100158.25;5031516;28;20132;-47
2022/02/16 00:04:06;;;;;;;34.22;11.13;;;;;;;7.68;100.00;100151.84;5032552;28;20072;-47
2022/02/16 00:06:32;;;;;;;28.35;10.23;;;;;;;7.68;100.00;100149.19;5021845;28;20053;-48
2022/02/16 00:08:57;;;;;;;24.73;10.10;;;;;;;7.70;100.00;100140.97;5020974;28;20085;-46
2022/02/16 00:11:22;;;;;;;24.00;10.45;;;;;;;7.72;100.00;100140.81;5015718;28;20026;-50
2022/02/16 00:13:48;;;;;;;28.75;11.20;;;;;;;7.71;100.00;100142.63;5021676;28;20021;-50
2022/02/16 00:16:13;;;;;;;30.17;9.65;;;;;;;7.72;100.00;100132.78;5033345;28;20041;-50
2022/02/16 00:18:39;;;;;;;22.40;10.90;;;;;;;7.71;100.00;100131.91;5017077;28;20045;-50
2022/02/16 00:21:05;;;;;;;28.85;10.80;;;;;;;7.70;100.00;100109.66;5019767;28;20033;-49
2022/02/16 00:23:31;;;;;;;26.85;9.68;;;;;;;7.72;100.00;100117.53;5033571;28;20068;-48
2022/02/16 00:25:59;;;;;;;25.98;10.88;;;;;;;7.72;100.00;100114.84;5020665;28;20445;-51
2022/02/16 00:28:27;;;;;;;26.52;11.15;;;;;;;7.73;100.00;100102.28;5013863;28;20076;-49
2022/02/16 00:30:52;;;;;;;31.30;11.77;;;;;;;7.73;100.00;100102.28;5031017;28;20084;-52
2022/02/16 00:33:17;;;;;;;35.30;9.88;;;;;;;7.73;100.00;100099.59;5030275;28;20068;-48
2022/02/16 00:35:43;;;;;;;27.13;9.65;;;;;;;7.72;100.00;100103.31;5029281;28;20053;-48
2022/02/16 00:38:08;;;;;;;40.28;9.60;;;;;;;7.73;100.00;100095.06;5022232;28;20121;-49
2022/02/16 00:40:34;;;;;;;42.83;9.73;;;;;;;7.74;100.00;100082.50;5027558;28;20558;-50
2022/02/16 00:42:59;;;;;;;30.65;7.90;;;;;;;7.74;100.00;100071.78;5029416;28;20049;-50
2022/02/16 00:45:24;;;;;;;34.28;8.75;;;;;;;7.72;100.00;100073.84;5029806;28;20040;-50
2022/02/16 00:47:50;;;;;;;35.72;7.18;;;;;;;7.69;100.00;100067.84;5033063;28;20530;-48
2022/02/16 00:50:16;;;;;;;40.75;7.30;;;;;;;7.70;100.00;100056.09;5028699;28;20030;-49
2022/02/16 00:52:41;;;;;;;30.08;5.95;;;;;;;7.72;100.00;100058.59;5024640;28;20109;-49
2022/02/16 00:55:07;;;;;;;35.05;6.25;;;;;;;7.73;100.00;100054.91;5019329;28;20033;-49
2022/02/16 00:57:33;;;;;;;34.95;6.95;;;;;;;7.72;100.00;100052.44;5017524;28;20021;-50
2022/02/16 00:59:59;;;;;;;32.45;6.82;;;;;;;7.72;100.00;100041.72;5024205;28;20045;-48
2022/02/16 01:02:25;;;;;;;40.17;8.00;;;;;;;7.72;100.00;100036.34;5014620;28;20043;-48
2022/02/16 01:04:50;;;;;;;36.65;8.55;;;;;;;7.73;100.00;100033.47;5020769;28;20021;-50
2022/02/16 01:07:15;;;;;;;40.20;9.05;;;;;;;7.75;100.00;100030.63;5018473;28;20044;-50
2022/02/16 01:09:41;;;;;;;31.48;8.73;;;;;;;7.75;100.00;100022.59;5017655;28;20187;-49
2022/02/16 01:12:06;;;;;;;42.35;8.05;;;;;;;7.74;100.00;100013.72;5026559;28;20455;-49
2022/02/16 01:14:32;;;;;;;44.38;9.20;;;;;;;7.76;100.00;100016.22;5026326;28;20040;-47
2022/02/16 01:16:57;;;;;;;39.70;10.95;;;;;;;7.76;100.00;100014.34;5030424;28;20492;-50
2022/02/16 01:19:23;;;;;;;52.40;12.07;;;;;;;7.80;100.00;100009.47;5024078;28;20489;-48
2022/02/16 01:21:48;;;;;;;61.42;14.68;;;;;;;7.81;100.00;100003.09;5028435;28;20037;-47
2022/02/16 01:24:13;;;;;;;51.33;14.73;;;;;;;7.82;100.00;99996.72;5018993;28;20032;-48
2022/02/16 01:26:38;;;;;;;60.10;16.55;;;;;;;7.85;100.00;99977.63;5027062;28;20034;-48
2022/02/16 01:29:04;;;;;;;59.20;15.38;;;;;;;7.87;100.00;99964.84;5017713;28;20116;-48
2022/02/16 01:31:29;;;;;;;52.97;11.63;;;;;;;7.89;100.00;99966.31;5026759;28;20046;-48
2022/02/16 01:33:54;;;;;;;41.38;7.90;;;;;;;7.93;100.00;99977.50;5011915;28;20033;-47
2022/02/16 01:36:20;;;;;;;57.63;8.85;;;;;;;7.94;100.00;99971.13;5016637;28;20083;-46
2022/02/16 01:38:45;;;;;;;57.90;8.50;;;;;;;7.94;100.00;99960.41;5020104;28;20033;-46
2022/02/16 01:41:17;;;;;;;56.20;8.30;;;;;;;7.95;100.00;99945.97;5031248;28;20043;-47
2022/02/16 01:43:50;;;;;;;56.47;10.68;;;;;;;7.96;100.00;99947.66;5017255;28;20030;-47
2022/02/16 01:46:16;;;;;;;57.63;12.05;;;;;;;7.97;100.00;99941.28;5014820;28;20117;-46
2022/02/16 01:48:41;;;;;;;75.18;15.40;;;;;;;7.97;100.00;99945.81;5022264;28;20108;-46
2022/02/16 01:51:06;;;;;;;64.00;17.42;;;;;;;7.96;100.00;99939.63;5011797;28;20022;-47
2022/02/16 01:53:32;;;;;;;69.22;18.10;;;;;;;7.98;100.00;99934.06;5013944;28;20115;-49
2022/02/16 01:55:57;;;;;;;52.50;17.23;;;;;;;7.97;100.00;99925.19;5015388;28;20022;-48
2022/02/16 01:58:23;;;;;;;51.33;18.17;;;;;;;8.00;100.00;99930.19;5015748;28;20492;-46
2022/02/16 02:00:49;;;;;;;50.60;16.55;;;;;;;8.01;100.00;99913.09;5020928;28;20104;-48
2022/02/16 02:03:14;;;;;;;47.88;17.23;;;;;;;8.01;100.00;99902.38;5024963;28;20022;-47
2022/02/16 02:05:44;;;;;;;72.22;18.35;;;;;;;8.02;100.00;99900.53;5021331;28;20460;-49
2022/02/16 02:08:10;;;;;;;63.70;17.00;;;;;;;8.02;100.00;99901.34;5019106;28;20041;-47
2022/02/16 02:10:36;;;;;;;53.05;15.77;;;;;;;8.04;100.00;99890.47;5023875;28;20038;-47
2022/02/16 02:13:01;;;;;;;54.92;15.68;;;;;;;8.07;100.00;99882.03;5014130;28;20030;-47
2022/02/16 02:15:26;;;;;;;52.95;13.15;;;;;;;8.08;100.00;99881.84;5019201;28;20034;-47
2022/02/16 02:17:52;;;;;;;48.63;11.52;;;;;;;8.13;100.00;99883.94;5023421;28;20026;-47
2022/02/16 02:20:25;;;;;;;50.38;10.20;;;;;;;8.12;100.00;99883.13;5011446;28;20034;-45
2022/02/16 02:22:54;;;;;;;42.10;9.18;;;;;;;8.16;100.00;99888.09;5017642;28;20057;-45
2022/02/16 02:25:20;;;;;;;49.08;8.15;;;;;;;8.18;100.00;99883.38;5031343;28;20113;-45
2022/02/16 02:27:45;;;;;;;40.53;7.43;;;;;;;8.21;100.00;99885.69;5029609;28;20033;-48
2022/02/16 02:30:11;;;;;;;44.90;7.20;;;;;;;8.23;100.00;99886.31;5019406;28;20034;-47
2022/02/16 02:32:41;;;;;;;46.25;8.60;;;;;;;8.22;100.00;99868.59;5028499;28;20034;-48
2022/02/16 02:35:08;;;;;;;42.47;9.95;;;;;;;8.20;100.00;99862.59;5027828;28;20052;-50
2022/02/16 02:37:37;;;;;;;31.58;9.25;;;;;;;8.20;100.00;99868.78;5028538;28;20036;-50
2022/02/16 02:40:04;;;;;;;40.03;10.55;;;;;;;8.19;100.00;99852.88;5023440;28;20456;-48
2022/02/16 02:42:29;;;;;;;37.03;10.50;;;;;;;8.19;100.00;99842.16;5021192;28;20037;-48
2022/02/16 02:44:54;;;;;;;35.92;11.15;;;;;;;8.19;100.00;99845.69;5026393;28;20057;-48
2022/02/16 02:47:19;;;;;;;47.65;11.75;;;;;;;8.18;100.00;99827.94;5026239;28;20047;-50
2022/02/16 02:49:45;;;;;;;34.17;10.70;;;;;;;8.16;100.00;99829.13;5027311;28;20037;-50
2022/02/16 02:52:10;;;;;;;32.38;10.75;;;;;;;8.16;100.00;99818.41;5034080;28;20029;-47
2022/02/16 02:54:36;;;;;;;30.30;10.50;;;;;;;8.17;100.00;99820.09;5029718;28;20373;-51
2022/02/16 02:57:01;;;;;;;37.55;10.63;;;;;;;8.17;100.00;99806.69;5021787;28;20030;-48
2022/02/16 02:59:27;;;;;;;24.80;10.38;;;;;;;8.17;100.00;99812.88;5032644;28;20029;-47
2022/02/16 03:01:52;;;;;;;27.10;9.27;;;;;;;8.19;100.00;99812.66;5022943;28;20515;-48
2022/02/16 03:04:17;;;;;;;20.02;9.50;;;;;;;8.21;100.00;99800.72;5021090;28;20492;-47
2022/02/16 03:06:42;;;;;;;25.63;8.57;;;;;;;8.21;100.00;99799.91;5088376;22;20436;-83
2022/02/16 03:09:08;;;;;;;16.33;7.40;;;;;;;8.22;100.00;99807.78;5043087;28;20041;-83
2022/02/16 03:11:33;;;;;;;19.90;7.75;;;;;;;8.25;100.00;99795.84;5049281;28;20104;-81
2022/02/16 03:13:58;;;;;;;20.02;7.32;;;;;;;8.26;100.00;99789.44;5065036;28;20045;-81
2022/02/16 03:16:24;;;;;;;16.17;6.75;;;;;;;8.28;100.00;99784.72;5054803;28;20036;-82
2022/02/16 03:18:49;;;;;;;15.15;5.53;;;;;;;8.29;100.00;99775.66;5039530;28;20037;-82
2022/02/16 03:21:14;;;;;;;26.73;6.35;;;;;;;8.31;100.00;99778.97;5056441;28;20022;-81
2022/02/16 03:23:40;;;;;;;11.77;5.38;;;;;;;8.33;100.00;99760.84;5039088;28;20033;-85
2022/02/16 03:26:06;;;;;;;13.60;5.20;;;;;;;8.29;100.00;99749.69;5039833;28;20033;-82
2022/02/16 03:28:31;;;;;;;13.68;5.18;;;;;;;8.27;100.00;99745.56;5022870;28;20057;-83
2022/02/16 03:30:56;;;;;;;18.35;6.18;;;;;;;8.25;100.00;99755.63;5002723;28;20037;-80
2022/02/16 03:33:21;;;;;;;21.20;5.55;;;;;;;8.25;100.00;99731.50;5034658;28;20052;-81
2022/02/16 03:35:47;;;;;;;13.95;5.93;;;;;;;8.25;100.00;99718.94;5003264;28;20112;-81
2022/02/16 03:38:12;;;;;;;15.63;5.35;;;;;;;8.23;100.00;99717.47;5035971;28;20217;-82
2022/02/16 03:40:37;;;;;;;13.88;5.90;;;;;;;8.21;100.00;99708.78;5043378;28;20079;-82
2022/02/16 03:43:03;;;;;;;18.35;6.47;;;;;;;8.19;100.00;99711.66;5066045;28;20018;-81
2022/02/16 03:45:28;;;;;;;11.10;6.05;;;;;;;8.13;100.00;99717.78;5042495;28;20038;-81
2022/02/16 03:47:54;;;;;;;11.77;5.78;;;;;;;8.09;100.00;99697.78;5002503;28;20044;-81
2022/02/16 03:50:22;;;;;;;9.68;5.72;;;;;;;8.09;100.00;99681.69;5019275;28;20040;-82
2022/02/16 03:52:50;;;;;;;10.43;6.25;;;;;;;8.09;100.00;99684.38;5018431;28;20481;-82
2022/02/16 03:55:16;;;;;;;9.25;5.80;;;;;;;8.06;100.00;99690.94;5016653;28;20025;-82
2022/02/16 03:57:41;;;;;;;13.77;6.40;;;;;;;8.04;100.00;99676.91;5022633;28;20181;-81
2022/02/16 04:00:09;;;;;;;13.98;7.82;;;;;;;8.05;100.00;99675.88;5024453;28;20112;-83
2022/02/16 04:02:34;;;;;;;10.35;7.00;;;;;;;8.04;100.00;99673.41;5018903;28;20034;-83
2022/02/16 04:05:00;;;;;;;11.07;7.13;;;;;;;8.04;100.00;99654.66;5039321;28;20079;-82
2022/02/16 04:07:25;;;;;;;14.20;8.70;;;;;;;8.00;100.00;99638.13;5035321;28;20037;-83
2022/02/16 04:09:51;;;;;;;17.02;10.95;;;;;;;8.03;100.00;99642.25;5034796;28;20058;-81
2022/02/16 04:12:16;;;;;;;15.13;10.25;;;;;;;7.99;100.00;99635.66;5023324;28;20088;-80
2022/02/16 04:14:42;;;;;;;15.63;10.82;;;;;;;8.00;100.00;99629.25;5020800;28;20053;-81
2022/02/16 04:17:07;;;;;;;15.07;11.27;;;;;;;7.95;100.00;99619.13;5035501;28;20433;-81
2022/02/16 04:19:33;;;;;;;16.60;12.75;;;;;;;7.95;100.00;99624.47;5037695;28;20026;-82
2022/02/16 04:21:58;;;;;;;22.08;13.68;;;;;;;7.93;100.00;99617.69;5032670;28;20064;-79
2022/02/16 04:24:24;;;;;;;21.63;13.13;;;;;;;7.94;100.00;99617.47;5031561;28;20342;-83
2022/02/16 04:26:50;;;;;;;21.98;13.52;;;;;;;7.94;100.00;99609.44;5046019;28;20037;-84
2022/02/16 04:29:15;;;;;;;20.33;13.57;;;;;;;7.95;100.00;99576.25;5035893;28;20040;-81
2022/02/16 04:31:41;;;;;;;22.58;14.65;;;;;;;7.94;100.00;99577.28;4998896;28;20473;-80
2022/02/16 04:34:07;;;;;;;24.75;16.10;;;;;;;7.93;100.00;99575.66;5014629;28;20033;-80
2022/02/16 04:36:33;;;;;;;22.52;15.52;;;;;;;7.92;100.00;99582.00;5016048;28;20087;-81
2022/02/16 04:38:59;;;;;;;23.25;15.63;;;;;;;7.94;100.00;99571.94;5014316;28;20125;-82
2022/02/16 04:41:25;;;;;;;24.05;15.35;;;;;;;7.91;100.00;99556.25;5015493;28;20417;-80
2022/02/16 04:43:51;;;;;;;24.48;16.10;;;;;;;7.92;100.00;99549.84;5015316;28;20029;-78
2022/02/16 04:46:17;;;;;;;23.63;15.15;;;;;;;7.91;100.00;99553.56;5014944;28;20168;-81
2022/02/16 04:48:43;;;;;;;22.30;15.05;;;;;;;7.92;100.00;99528.44;5014604;28;20026;-80
2022/02/16 04:51:08;;;;;;;22.13;13.52;;;;;;;7.95;100.00;99544.09;4996461;28;20033;-78
2022/02/16 04:53:34;;;;;;;21.02;13.02;;;;;;;7.95;100.00;99535.25;5014834;28;20413;-78
2022/02/16 04:56:00;;;;;;;22.42;13.45;;;;;;;7.93;100.00;99511.34;5045533;28;20033;-78
2022/02/16 04:58:25;;;;;;;22.55;11.85;;;;;;;7.94;100.00;99517.53;5021600;28;20084;-79
2022/02/16 05:00:51;;;;;;;18.70;11.00;;;;;;;7.89;100.00;99521.59;5017046;28;20034;-79
2022/02/16 05:03:16;;;;;;;19.23;11.18;;;;;;;7.90;100.00;99499.19;5032346;28;20539;-79
2022/02/16 05:05:41;;;;;;;17.83;10.13;;;;;;;7.90;100.00;99506.38;5023877;28;20469;-79
2022/02/16 05:08:07;;;;;;;14.77;9.60;;;;;;;7.91;100.00;99489.28;5025605;28;20143;-80
2022/02/16 05:10:32;;;;;;;15.13;9.70;;;;;;;7.93;100.00;99492.59;5019391;28;20034;-79
2022/02/16 05:12:57;;;;;;;18.83;10.18;;;;;;;7.94;100.00;99496.91;5025724;28;20026;-79
2022/02/16 05:15:23;;;;;;;16.60;9.38;;;;;;;7.95;100.00;99479.81;5031333;28;20030;-78
2022/02/16 05:17:48;;;;;;;12.93;8.52;;;;;;;7.96;100.00;99476.13;5031447;28;20040;-80
2022/02/16 05:20:13;;;;;;;17.92;9.38;;;;;;;8.00;100.00;99482.72;5019504;28;20128;-79
2022/02/16 05:22:39;;;;;;;15.70;8.52;;;;;;;8.00;100.00;99466.66;5014783;28;20112;-79
2022/02/16 05:25:05;;;;;;;16.42;9.63;;;;;;;8.01;100.00;99471.00;5032307;28;20055;-82
2022/02/16 05:27:30;;;;;;;12.00;8.68;;;;;;;8.02;100.00;99469.97;5032766;28;20486;-79
2022/02/16 05:29:56;;;;;;;14.68;8.38;;;;;;;8.06;100.00;99455.16;5028182;28;20040;-81
2022/02/16 05:32:21;;;;;;;15.40;9.52;;;;;;;8.07;100.00;99448.75;5035634;28;20028;-82
2022/02/16 05:34:46;;;;;;;19.95;9.63;;;;;;;8.12;100.00;99438.25;5036760;28;20086;-82
2022/02/16 05:37:12;;;;;;;14.48;9.38;;;;;;;8.13;100.00;99445.25;5032475;28;20091;-80
2022/02/16 05:39:37;;;;;;;17.13;9.63;;;;;;;8.17;100.00;99434.16;5040319;28;20033;-81
2022/02/16 05:42:03;;;;;;;15.15;10.00;;;;;;;8.21;100.00;99432.72;5033238;28;20022;-80
2022/02/16 05:44:29;;;;;;;14.65;9.52;;;;;;;8.22;100.00;99426.34;5031956;28;20397;-80
2022/02/16 05:46:55;;;;;;;17.80;11.13;;;;;;;8.25;100.00;99522.44;5014140;28;20026;-81
2022/02/16 05:49:20;;;;;;;13.63;9.65;;;;;;;8.29;100.00;99419.13;5024135;28;20034;-81
2022/02/16 05:51:45;;;;;;;15.63;9.57;;;;;;;8.30;100.00;99426.16;5039393;28;20477;-81
2022/02/16 05:54:11;;;;;;;14.50;9.68;;;;;;;8.31;100.00;99409.03;5027113;28;20389;-81
2022/02/16 05:56:36;;;;;;;14.93;10.13;;;;;;;8.33;100.00;99401.63;5022820;28;20021;-80
2022/02/16 05:59:02;;;;;;;18.80;11.07;;;;;;;8.35;100.00;99421.03;5033036;28;20037;-80
2022/02/16 06:01:27;;;;;;;16.40;10.60;;;;;;;8.35;100.00;99410.31;5043647;28;20361;-80
2022/02/16 06:03:53;;;;;;;18.08;10.25;;;;;;;8.37;100.00;99427.00;5027783;28;20029;-80
2022/02/16 06:06:19;;;;;;;20.02;10.25;;;;;;;8.40;100.00;99418.59;5022903;28;20104;-79
2022/02/16 06:08:45;;;;;;;15.38;9.13;;;;;;;8.41;100.00;99416.75;5032099;28;20093;-79
2022/02/16 06:11:10;;;;;;;14.10;9.00;;;;;;;8.44;100.00;99414.47;5019939;28;20056;-80
2022/02/16 06:13:36;;;;;;;15.90;8.40;;;;;;;8.47;100.00;99423.97;5020008;28;20025;-80
2022/02/16 06:16:01;;;;;;;11.43;6.25;;;;;;;8.51;100.00;99420.69;5036399;28;20485;-79
2022/02/16 06:18:27;;;;;;;11.30;6.50;;;;;;;8.54;100.00;99412.22;5023003;28;20049;-80
2022/02/16 06:20:52;;;;;;;8.80;5.75;;;;;;;8.60;100.00;99417.81;5037819;28;20041;-80
2022/02/16 06:23:17;;;;;;;9.10;5.50;;;;;;;8.63;100.00;99409.34;5042596;28;20022;-80
2022/02/16 06:25:43;;;;;;;5.90;4.57;;;;;;;8.63;100.00;99406.66;5044202;28;20067;-79
2022/02/16 06:28:08;;;;;;;9.73;5.82;;;;;;;8.66;100.00;99419.66;5035858;28;20029;-80
2022/02/16 06:30:34;;;;;;;12.52;6.65;;;;;;;8.69;100.00;99405.84;5032010;28;20032;-79
2022/02/16 06:32:59;;;;;;;11.80;6.50;;;;;;;8.70;100.00;99423.59;5029264;28;20030;-80
2022/02/16 06:35:25;;;;;;;12.63;6.68;;;;;;;8.71;100.00;99412.66;5035398;28;20215;-80
2022/02/16 06:37:50;;;;;;;10.55;6.97;;;;;;;8.74;100.00;99409.56;5029655;28;20029;-80
2022/02/16 06:40:16;;;;;;;14.45;8.52;;;;;;;8.84;100.00;99411.00;5027771;28;20024;-81
2022/02/16 06:42:42;;;;;;;16.80;8.60;;;;;;;8.88;100.00;99415.78;5022797;28;20038;-83
2022/02/16 06:45:08;;;;;;;16.50;7.60;;;;;;;8.99;100.00;99438.47;5039292;28;20041;-80
2022/02/16 06:47:35;;;;;;;22.38;8.88;;;;;;;9.00;100.00;99430.22;5034800;28;20021;-83
2022/02/16 06:50:00;;;;;;;25.10;8.85;;;;;;;9.07;100.00;99432.91;5063882;28;20404;-82
2022/02/16 06:52:26;;;;;;;16.63;7.55;;;;;;;9.07;100.00;99408.75;5046040;28;20029;-84
2022/02/16 06:54:51;;;;;;;16.85;7.85;;;;;;;9.10;100.00;99418.25;5034116;28;20037;-83
2022/02/16 06:57:17;;;;;;;23.80;8.23;;;;;;;9.09;100.00;99405.88;5038594;28;20039;-83
2022/02/16 06:59:43;;;;;;;24.88;8.05;;;;;;;9.08;100.00;99404.19;5040013;28;20026;-82
2022/02/16 07:02:08;;;;;;;24.25;8.13;;;;;;;9.06;100.00;99412.47;5032642;28;20045;-83
2022/02/16 07:04:34;;;;;;;39.72;9.77;;;;;;;9.06;100.00;99433.09;5023952;28;20490;-82
2022/02/16 07:06:59;;;;;;;35.25;9.60;;;;;;;9.05;100.00;99404.63;5021397;28;20053;-83
2022/02/16 07:09:24;;;;;;;33.67;9.10;;;;;;;9.05;100.00;99409.97;5036720;28;20022;-83
2022/02/16 07:11:52;;;;;;;35.80;9.65;;;;;;;9.06;100.00;99427.72;5039462;28;20026;-83
2022/02/16 07:14:19;;;;;;;33.38;9.70;;;;;;;9.04;100.00;99425.28;5027974;28;20037;-82
2022/02/16 07:16:44;;;;;;;32.08;9.48;;;;;;;9.03;100.00;99431.69;5036785;28;20104;-81
2022/02/16 07:19:10;;;;;;;37.13;10.90;;;;;;;8.99;100.00;99428.56;5041431;28;20053;-83
2022/02/16 07:21:35;;;;;;;41.33;9.25;;;;;;;9.02;100.00;99424.63;5037345;28;20075;-84
2022/02/16 07:24:00;;;;;;;34.45;8.90;;;;;;;8.98;100.00;99415.38;5033701;28;20025;-82
2022/02/16 07:26:26;;;;;;;40.17;9.13;;;;;;;8.98;100.00;99416.19;5037867;28;20079;-83
2022/02/16 07:28:52;;;;;;;37.83;9.18;;;;;;;9.00;100.00;99429.38;5036286;28;20033;-83
2022/02/16 07:31:17;;;;;;;47.58;10.10;;;;;;;8.99;100.00;99423.19;5032158;28;20038;-82
2022/02/16 07:33:43;;;;;;;46.30;8.80;;;;;;;9.00;100.00;99424.00;5040515;28;20367;-83
2022/02/16 07:36:08;;;;;;;51.40;8.93;;;;;;;9.01;100.00;99447.97;5036819;28;20025;-83
2022/02/16 07:39:50;;;;;;;51.88;8.30;;;;;;;9.03;100.00;99437.03;5067276;28;20394;-48
2022/02/16 07:42:16;;;;;;;53.63;9.27;;;;;;;9.04;100.00;99445.91;5066769;28;20041;-47
2022/02/16 07:44:41;;;;;;;52.25;8.90;;;;;;;9.06;100.00;99467.97;5067238;28;20043;-48
2022/02/16 07:47:09;;;;;;;56.50;8.52;;;;;;;9.07;100.00;99472.34;5066041;28;20050;-47
2022/02/16 07:49:36;;;;;;;68.00;8.85;;;;;;;9.08;100.00;99479.34;5067828;28;20025;-46
2022/02/16 07:52:02;;;;;;;66.68;9.55;;;;;;;9.10;100.00;99485.34;5066609;28;20467;-47
2022/02/16 07:54:28;;;;;;;54.15;8.98;;;;;;;9.12;100.00;99480.59;5067367;28;20031;-49
2022/02/16 07:56:53;;;;;;;45.70;6.97;;;;;;;9.15;100.00;99485.56;5067581;28;20103;-48
2022/02/16 07:59:19;;;;;;;64.18;8.15;;;;;;;9.18;100.00;99479.75;5067621;28;20120;-48
2022/02/16 08:01:44;;;;;;;63.60;7.13;;;;;;;9.22;100.00;99481.03;5066757;28;20060;-50
2022/02/16 08:04:15;;;;;;;53.55;7.45;;;;;;;9.22;100.00;99492.56;5067093;28;20021;-50
2022/02/16 08:06:42;;;;;;;47.65;6.85;;;;;;;9.25;100.00;99485.16;5059700;28;20044;-48
2022/02/16 08:09:10;;;;;;;55.42;6.95;;;;;;;9.32;100.00;99480.59;5047373;28;20033;-50
2022/02/16 08:11:41;;;;;;;57.65;6.72;;;;;;;9.33;100.00;99485.75;5047992;28;20128;-48
2022/02/16 08:14:07;;;;;;;51.78;7.03;;;;;;;9.33;100.00;99509.91;5046610;28;20017;-49
2022/02/16 08:16:33;;;;;;;58.17;7.25;;;;;;;9.36;100.00;99501.44;5044767;28;20398;-47
2022/02/16 08:18:59;;;;;;;53.50;6.97;;;;;;;9.43;100.00;99475.44;5046396;28;20163;-48
2022/02/16 08:21:24;;;;;;;54.72;7.65;;;;;;;9.49;100.00;99502.50;5047188;28;20036;-47
2022/02/16 08:23:49;;;;;;;57.00;7.93;;;;;;;9.53;100.00;99503.72;5045519;28;20025;-49
2022/02/16 08:26:15;;;;;;;58.25;6.60;;;;;;;9.55;100.00;99470.22;5046849;28;20026;-48
2022/02/16 08:28:42;;;;;;;51.08;5.97;;;;;;;9.62;100.00;99465.69;5047578;28;20115;-47
2022/02/16 08:31:07;;;;;;;54.10;6.05;;;;;;;9.66;100.00;99471.44;5046853;28;20052;-51
2022/02/16 08:33:33;;;;;;;50.88;6.65;;;;;;;9.69;100.00;99476.44;5047540;28;20029;-47
2022/02/16 08:35:58;;;;;;;48.45;5.72;;;;;;;9.77;100.00;99468.16;5043534;28;20040;-48
2022/02/16 08:38:23;;;;;;;67.18;6.00;;;;;;;9.83;100.00;99486.09;5043831;28;20056;-48
2022/02/16 08:40:49;;;;;;;60.72;5.97;;;;;;;9.95;100.00;99490.81;5045150;28;20048;-50
2022/02/16 08:43:14;;;;;;;56.08;5.55;;;;;;;10.01;100.00;99492.69;5047365;28;20037;-49
2022/02/16 08:45:41;;;;;;;55.33;6.07;;;;;;;10.04;100.00;99500.31;5046981;28;20040;-50
2022/02/16 08:48:07;;;;;;;47.70;6.50;;;;;;;10.08;100.00;99517.66;5047641;28;20484;-49
2022/02/16 08:50:32;;;;;;;45.50;5.88;;;;;;;10.14;100.00;99495.34;5036696;28;20040;-51
2022/02/16 08:52:57;;;;;;;47.03;5.10;;;;;;;10.17;100.00;99505.66;5033043;28;20025;-47
2022/02/16 08:55:23;;;;;;;54.38;6.05;;;;;;;10.27;100.00;99506.06;5034750;28;20025;-47
2022/02/16 08:57:48;;;;;;;51.47;6.28;;;;;;;10.35;100.00;99491.56;5053651;28;20040;-51
2022/02/16 09:00:15;;;;;;;41.28;4.50;;;;;;;10.39;100.00;99502.72;5038207;28;20022;-48
2022/02/16 09:02:41;;;;;;;50.55;5.10;;;;;;;10.45;100.00;99515.28;5032604;28;20428;-47
2022/02/16 09:05:06;;;;;;;51.72;5.80;;;;;;;10.67;100.00;99511.25;5033443;28;20083;-47
2022/02/16 09:07:32;;;;;;;36.08;4.57;;;;;;;10.71;100.00;99501.69;5033239;28;20076;-50
2022/02/16 09:09:59;;;;;;;48.35;4.90;;;;;;;10.95;99.88;99483.13;5033497;28;20108;-48
2022/02/16 09:12:25;;;;;;;48.83;4.60;;;;;;;11.00;98.67;99521.00;5029125;28;20026;-46
2022/02/16 09:14:50;;;;;;;49.90;5.18;;;;;;;10.90;97.97;99523.34;5030635;28;20285;-50
2022/02/16 09:17:16;;;;;;;52.08;5.13;;;;;;;10.90;98.23;99529.56;5032956;28;20036;-50
2022/02/16 09:19:41;;;;;;;40.35;4.72;;;;;;;10.82;98.54;99496.69;5029696;28;20042;-48
2022/02/16 09:22:08;;;;;;;42.40;5.68;;;;;;;10.71;98.37;99512.47;5023705;28;20112;-49
2022/02/16 09:24:34;;;;;;;48.47;5.38;;;;;;;10.77;98.90;99517.00;5031701;28;20037;-47
2022/02/16 09:26:59;;;;;;;39.65;5.07;;;;;;;10.81;98.63;99512.00;5015006;28;20041;-48
2022/02/16 09:29:25;;;;;;;47.40;5.78;;;;;;;10.81;98.41;99505.81;5032435;28;20099;-46
2022/02/16 09:31:52;;;;;;;34.25;4.63;;;;;;;11.09;98.59;99497.34;5032278;28;20451;-48
2022/02/16 09:34:17;;;;;;;30.57;4.00;;;;;;;11.27;97.38;99528.88;5032853;28;20464;-48
2022/02/16 09:36:43;;;;;;;33.70;4.60;;;;;;;11.25;96.25;99506.75;5032346;28;20314;-50
2022/02/16 09:39:08;;;;;;;39.65;5.10;;;;;;;11.19;96.45;99522.75;5030406;28;20096;-49
2022/02/16 09:41:33;;;;;;;46.25;4.35;;;;;;;11.10;96.82;99515.97;5032065;28;20075;-49
2022/02/16 09:43:59;;;;;;;31.77;5.07;;;;;;;11.13;96.89;99534.38;5031635;28;20068;-47
2022/02/16 09:46:25;;;;;;;34.90;4.78;;;;;;;11.05;96.65;99513.09;5032043;28;20022;-52
2022/02/16 09:48:50;;;;;;;37.10;4.40;;;;;;;11.02;96.70;99496.56;5013249;28;20128;-50
2022/02/16 09:51:17;;;;;;;38.65;4.68;;;;;;;11.08;96.78;99507.28;5016624;28;20112;-47
2022/02/16 09:53:42;;;;;;;35.75;5.13;;;;;;;11.04;96.87;99508.75;5033116;28;20391;-47
2022/02/16 09:56:07;;;;;;;41.95;5.00;;;;;;;11.01;96.74;99516.47;5022782;28;20033;-47
2022/02/16 09:58:33;;;;;;;37.03;5.78;;;;;;;10.92;96.79;99521.25;5026558;28;20310;-49
2022/02/16 10:01:08;;;;;;;31.90;4.15;;;;;;;10.92;97.03;99505.09;5031356;28;20530;-48
2022/02/16 10:03:35;;;;;;;30.40;4.13;;;;;;;11.00;97.19;99494.06;5030952;28;20029;-48
2022/02/16 10:06:01;;;;;;;34.72;5.05;;;;;;;10.95;97.14;99494.75;5024672;28;20070;-50
2022/02/16 10:08:45;;;;;;;35.28;3.97;;;;;;;10.85;97.27;99489.00;5024615;28;20182;-47
2022/02/16 10:11:11;;;;;;;39.03;4.15;;;;;;;10.79;97.87;99507.88;5030598;28;20048;-49
2022/02/16 10:13:37;;;;;;;44.00;5.45;;;;;;;10.75;98.10;99476.03;5032127;28;20424;-49
2022/02/16 10:16:03;;;;;;;43.75;6.03;;;;;;;10.69;98.15;99494.88;5027575;28;20033;-49
2022/02/16 10:18:28;;;;;;;37.92;5.38;;;;;;;10.62;98.19;99470.72;5031447;28;20040;-48
2022/02/16 10:21:12;;;;;;;45.42;5.35;;;;;;;10.57;98.47;99464.34;5032041;28;20029;-49
2022/02/16 10:23:42;;;;;;;38.65;5.47;;;;;;;10.53;98.92;99466.63;5024795;28;20349;-49
2022/02/16 10:26:07;;;;;;;43.05;4.95;;;;;;;10.51;98.95;99484.88;5032143;28;20025;-46
2022/02/16 10:28:39;;;;;;;50.13;6.18;;;;;;;10.44;98.84;99460.69;5031942;28;20428;-47
2022/02/16 10:31:07;;;;;;;52.47;6.07;;;;;;;10.37;98.79;99448.31;5032115;28;20053;-47
2022/02/16 10:33:39;;;;;;;;;;;;;;;10.35;99.02;99461.13;5029783;28;20087;-48
2022/02/16 10:36:14;;;;;;;56.55;7.13;;;;;;;10.33;98.72;99456.81;5032386;28;19913;-48
2022/02/16 10:39:10;;;;;;;61.63;6.35;;;;;;;10.29;98.92;99436.78;5031450;28;20128;-48
2022/02/16 10:41:53;;;;;;;60.97;7.22;;;;;;;10.28;99.10;99470.06;5031451;28;20040;-48
2022/02/16 10:44:27;;;;;;;54.42;7.53;;;;;;;10.21;98.84;99474.59;5026609;28;20507;-48
2022/02/16 10:47:03;;;;;;;56.78;8.35;;;;;;;10.25;98.95;99475.84;5028222;28;20041;-50
2022/02/16 10:49:29;;;;;;;59.42;7.68;;;;;;;10.24;99.04;99479.59;5030554;28;20033;-47
2022/02/16 10:52:07;;;;;;;60.28;6.72;;;;;;;10.27;98.83;99535.66;5030526;28;20034;-49
2022/02/16 10:54:32;;;;;;;63.10;6.82;;;;;;;10.22;98.42;99518.47;5031141;28;20112;-47
2022/02/16 10:56:58;;;;;;;55.67;6.72;;;;;;;10.18;98.34;99518.06;5031191;28;20116;-50
2022/02/16 10:59:23;;;;;;;58.60;7.50;;;;;;;10.19;98.77;99527.78;5028342;28;20030;-49
2022/02/16 11:01:48;;;;;;;64.15;7.75;;;;;;;10.19;98.54;99514.34;5030644;28;20052;-46
2022/02/16 11:04:15;;;;;;;66.47;7.40;;;;;;;10.20;98.64;99526.75;5030754;28;20031;-50
2022/02/16 11:06:47;;;;;;;64.88;7.13;;;;;;;10.19;98.51;99508.13;5031842;28;20360;-49
2022/02/16 11:09:17;;;;;;;64.55;7.28;;;;;;;10.17;98.35;99510.22;5031170;28;20091;-49
2022/02/16 11:11:42;;;;;;;44.45;5.70;;;;;;;10.10;98.17;99510.22;5031420;28;20112;-48
2022/02/16 11:14:09;;;;;;;53.97;5.78;;;;;;;10.10;98.21;99499.47;5031248;28;20128;-49
2022/02/16 11:16:35;;;;;;;61.85;8.07;;;;;;;10.07;98.64;99521.41;5020843;28;20025;-50
2022/02/16 11:19:06;;;;;;;60.15;7.20;;;;;;;10.06;98.50;99511.69;5031561;28;20021;-50